createdAt,value
2017-10-14T00:00:02.978Z,10.4
2017-10-14T00:15:03.411Z,10.4
2017-10-14T00:30:03.445Z,10.3
2017-10-14T00:45:03.288Z,10.3
2017-10-14T01:00:03.007Z,10.2
2017-10-14T01:15:03.054Z,10.2
2017-10-14T01:30:02.982Z,10.2
2017-10-14T01:45:02.813Z,10.2
2017-10-14T02:00:05.097Z,10.1
2017-10-14T02:15:03.137Z,10.1
2017-10-14T02:30:03.127Z,10.1
2017-10-14T02:45:04.173Z,10.1
2017-10-14T03:00:03.289Z,10
2017-10-14T03:15:03.120Z,10
2017-10-14T03:30:03.878Z,9.9
2017-10-14T03:45:03.018Z,9.9
2017-10-14T04:00:03.331Z,9.9
2017-10-14T04:15:04.163Z,9.9
2017-10-14T04:30:04.118Z,9.9
2017-10-14T04:45:03.022Z,9.8
2017-10-14T05:00:02.951Z,9.8
2017-10-14T05:15:03.301Z,9.8
2017-10-14T05:30:04.872Z,9.8
2017-10-14T05:45:04.350Z,9.8
2017-10-14T06:00:04.488Z,9.7
2017-10-14T06:15:05.026Z,9.7
2017-10-14T06:30:03.778Z,9.7
2017-10-14T06:45:02.815Z,9.7
2017-10-14T07:00:02.890Z,9.7
2017-10-14T07:15:04.444Z,9.7
2017-10-14T07:30:04.651Z,9.6
2017-10-14T07:45:04.134Z,9.6
2017-10-14T08:00:03.542Z,9.6
2017-10-14T08:15:03.303Z,9.7
2017-10-14T08:30:04.026Z,9.7
2017-10-14T08:45:02.986Z,9.7
2017-10-14T09:00:03.693Z,9.7
2017-10-14T09:15:03.546Z,9.7
2017-10-14T09:30:02.930Z,9.7
2017-10-14T09:45:03.567Z,9.7
2017-10-14T10:00:04.612Z,9.8
2017-10-14T10:15:03.896Z,9.8
2017-10-14T10:30:02.907Z,9.8
2017-10-14T10:45:04.349Z,9.9
2017-10-14T11:00:04.236Z,9.9
2017-10-14T11:15:03.369Z,10
2017-10-14T11:30:04.460Z,10.1
2017-10-14T11:45:04.599Z,10.1
2017-10-14T12:00:03.290Z,10.2
2017-10-14T12:15:03.675Z,10.2
2017-10-14T12:30:04.307Z,10.3
2017-10-14T12:45:03.444Z,10.3
2017-10-14T13:00:03.255Z,10.4
2017-10-14T13:15:03.033Z,10.4
2017-10-14T13:30:03.043Z,10.5
2017-10-14T13:45:03.047Z,10.6
2017-10-14T14:00:03.118Z,10.6
2017-10-14T14:15:02.961Z,10.6
2017-10-14T14:30:02.918Z,10.6
2017-10-14T14:45:03.044Z,10.7
2017-10-14T15:00:02.965Z,10.7
2017-10-14T15:15:02.955Z,10.8
2017-10-14T15:30:02.896Z,10.8
2017-10-14T15:45:04.799Z,10.8
2017-10-14T16:00:05.098Z,10.8
2017-10-14T16:15:04.070Z,10.8
2017-10-14T16:30:03.078Z,10.8
2017-10-14T16:45:03.721Z,10.8
2017-10-14T17:00:03.620Z,10.8
2017-10-14T17:15:03.967Z,10.8
2017-10-14T17:30:03.047Z,10.8
2017-10-14T17:45:03.539Z,10.8
2017-10-14T18:00:04.083Z,10.8
2017-10-14T18:15:04.413Z,10.8
2017-10-14T18:30:03.923Z,10.8
2017-10-14T18:45:03.597Z,10.8
2017-10-14T19:00:04.311Z,10.8
2017-10-14T19:15:04.096Z,10.8
2017-10-14T19:30:03.073Z,10.8
2017-10-14T19:45:05.675Z,10.8
2017-10-14T20:00:04.743Z,10.8
2017-10-14T20:15:04.528Z,10.8
2017-10-14T20:30:04.292Z,10.8
2017-10-14T20:45:04.257Z,10.8
2017-10-14T21:00:03.277Z,10.8
2017-10-14T21:15:03.221Z,10.8
2017-10-14T21:30:03.313Z,10.8
2017-10-14T21:45:03.114Z,10.8
2017-10-14T22:00:03.249Z,10.8
2017-10-14T22:15:03.278Z,10.8
2017-10-14T22:30:04.412Z,10.7
2017-10-14T22:45:04.743Z,10.7
2017-10-14T23:00:05.001Z,10.6
2017-10-14T23:15:03.972Z,10.6
2017-10-14T23:30:03.044Z,10.6
2017-10-14T23:45:03.031Z,10.6
